Thunder radar more information blitzortung!


Radar de pluja more information rain snow radar


Visita la nostra xarxa de llocs de meteo:

Template documentation
and downloads

And another site



No particular awareness of the weather is required.    There are no Weather-warnings

Pagina Historial Weather Underground text

Diari Resum Abril 6, 2016 Unitats:  Mètric    Imperial   Tant
« Previous Dia
SegĂźent Dia »
Diari Setmana Mensual Anual Personalitzada
  Maxima: Minima: Media:
Temperatura: -17.8 °C -12.5 °C -9.1 °C
Punt de rosada: -17.8 °C -15.5 °C -12.9 °C
Humitat: Humidity % 49 % 64 %
Wind Speed: 0 km/h 0 km/h 8.2 km/h
RĂ fegues de vent: 0 km/h - -
Vent:- - SW
Pression baro: 0 hPa 34256.2 hPa -
Precipitacions: 0 mm    
Historical Graphs
 
 
Dades de taula per Abril 6, 2016
Temps Temperatura Punt de rosada Pression baro Vent Wind Speed RĂ fegues de vent Humitat Rainfall Rate (Hourly)
-17.8 °C -17.8 °C 0 hPa Calm     Humidity % 0 mm
00:00 -11.9 °C -12.8 °C 34293.4 hPa Calm   2.6 km/h 89 % 0 mm
00:04 -11.1 °C -12.2 °C 34256.2 hPa Calm     88 % 0 mm
00:09 -11.1 °C -12.2 °C 34256.2 hPa WSW 6 km/h 6 km/h 88 % 0 mm
00:10 -11.9 °C -12.9 °C 34256.2 hPa Calm   2.6 km/h 88 % 0 mm
00:30 -11.9 °C -13.1 °C 34256.2 hPa Calm     87 % 0 mm
00:40 -11.9 °C -13.2 °C 34293.4 hPa North 2.6 km/h   86 % 0 mm
00:50 -11.8 °C -13.1 °C 34293.4 hPa Calm   2.6 km/h 86 % 0 mm
01:00 -11.9 °C -13.2 °C 34293.4 hPa NNW 2.6 km/h 5.1 km/h 85 % 0 mm
01:10 -12 °C -13.3 °C 34293.4 hPa NNW 2.6 km/h 5.1 km/h 85 % 0 mm
01:20 -12.1 °C -13.3 °C 34293.4 hPa Calm   5.1 km/h 86 % 0 mm
01:30 -12.1 °C -13.4 °C 34327.3 hPa NNE 5.1 km/h 5.1 km/h 86 % 0 mm
01:40 -12.2 °C -13.4 °C 34293.4 hPa NNW 2.6 km/h 5.1 km/h 86 % 0 mm
01:50 -12.2 °C -13.4 °C 34293.4 hPa Calm   5.1 km/h 86 % 0 mm
02:00 -12.3 °C -13.5 °C 34293.4 hPa Calm   2.6 km/h 87 % 0 mm
02:10 -12.4 °C -13.6 °C 34327.3 hPa SW 2.6 km/h 5.1 km/h 87 % 0 mm
02:20 -12.4 °C -13.6 °C 34327.3 hPa Calm   5.1 km/h 87 % 0 mm
02:35 -12.5 °C -13.7 °C 34327.3 hPa WSW 2.6 km/h 5.1 km/h 87 % 0 mm
02:45 -12.5 °C -13.6 °C 34327.3 hPa Calm   2.6 km/h 88 % 0 mm
02:55 -12.4 °C -13.4 °C 34327.3 hPa West 2.6 km/h 5.1 km/h 88 % 0 mm
03:05 -12.5 °C -13.6 °C 34327.3 hPa Calm     88 % 0 mm
03:15 -12.4 °C -13.5 °C 34293.4 hPa WSW 2.6 km/h 5.1 km/h 88 % 0 mm
03:25 -12.3 °C -13.4 °C 34327.3 hPa WSW 5.1 km/h 5.1 km/h 88 % 0 mm
03:35 -12.1 °C -13.2 °C 34327.3 hPa Calm   7.7 km/h 87 % 0 mm
03:45 -11.9 °C -13.1 °C 34327.3 hPa Calm     87 % 0 mm
03:55 -11.8 °C -12.9 °C 34327.3 hPa WSW 2.6 km/h 5.1 km/h 87 % 0 mm
04:05 -11.7 °C -12.9 °C 34327.3 hPa SSW 2.6 km/h 5.1 km/h 86 % 0 mm
04:15 -11.6 °C -12.9 °C 34361.1 hPa SW 5.1 km/h 5.1 km/h 85 % 0 mm
04:25 -11.6 °C -12.9 °C 34361.1 hPa WSW 2.6 km/h 7.7 km/h 85 % 0 mm
04:35 -11.5 °C -12.8 °C 34361.1 hPa SW 2.6 km/h 7.7 km/h 85 % 0 mm
04:45 -11.3 °C -12.8 °C 34361.1 hPa WSW 2.6 km/h 7.7 km/h 84 % 0 mm
04:55 -11.2 °C -12.7 °C 34361.1 hPa WNW 2.6 km/h 7.7 km/h 84 % 0 mm
05:05 -11.1 °C -12.7 °C 34361.1 hPa WSW 2.6 km/h 2.6 km/h 83 % 0 mm
05:15 -10.9 °C -12.6 °C 34361.1 hPa WSW 5.1 km/h 10.3 km/h 82 % 0 mm
05:25 -10.6 °C -12.3 °C 34361.1 hPa WSW 2.6 km/h 10.3 km/h 81 % 0 mm
10:31 -10.3 °C -12.3 °C 34361.1 hPa NNE 11.1 km/h 11.1 km/h 79 % 0 mm
10:36 -10.4 °C -12.4 °C 34395 hPa WNW 9 km/h 9 km/h 79 % 0 mm
10:41 -10.4 °C -12.4 °C 34395 hPa ENE 9 km/h   78 % 0 mm
10:46 -10.1 °C -12.2 °C 34395 hPa SSE 6 km/h 6 km/h 78 % 0 mm
10:51 -9.9 °C -12 °C 34361.1 hPa North 8 km/h 8 km/h 78 % 0 mm
10:56 -9.9 °C -12 °C 34361.1 hPa ENE 8 km/h 8 km/h 78 % 0 mm
11:01 -9.9 °C -12.2 °C 34361.1 hPa ESE 9 km/h 9 km/h 77 % 0 mm
11:06 -9.9 °C -12.1 °C 34361.1 hPa ENE 9 km/h 9 km/h 77 % 0 mm
11:11 -9.8 °C -12.2 °C 34361.1 hPa ENE 6 km/h 6 km/h 76 % 0 mm
11:16 -9.7 °C -12.1 °C 34361.1 hPa NE 9 km/h 9 km/h 76 % 0 mm
11:21 -9.8 °C -12.1 °C 34395 hPa NNE 9 km/h 9 km/h 76 % 0 mm
11:26 -9.8 °C -12.1 °C 34395 hPa NNE 7.6 km/h 7.6 km/h 76 % 0 mm
11:31 -9.6 °C -11.9 °C 34395 hPa SSW 9 km/h 9 km/h 76 % 0 mm
11:36 -9.4 °C -11.8 °C 34361.1 hPa NNE 9 km/h 9 km/h 76 % 0 mm
11:41 -9.3 °C -11.8 °C 34361.1 hPa NNE 14.5 km/h 14.5 km/h 75 % 0 mm
11:46 -9.3 °C -11.8 °C 34361.1 hPa ENE 11.9 km/h 11.9 km/h 75 % 0 mm
11:51 -9.2 °C -11.7 °C 34361.1 hPa ENE 9 km/h 9 km/h 75 % 0 mm
12:01 -9.1 °C -11.7 °C 34361.1 hPa East 9 km/h 9.3 km/h 74 % 0 mm
12:06 -9.2 °C -11.7 °C 34361.1 hPa East 9 km/h 9 km/h 74 % 0 mm
12:11 -9 °C -11.6 °C 34361.1 hPa North 5.1 km/h 5.1 km/h 74 % 0 mm
12:16 -9 °C -11.6 °C 34361.1 hPa NNW 11.9 km/h 11.9 km/h 74 % 0 mm
12:21 -8.9 °C -11.4 °C 34361.1 hPa WNW 9 km/h 9 km/h 74 % 0 mm
12:26 -8.8 °C -11.5 °C 34361.1 hPa NW 6 km/h 6.8 km/h 73 % 0 mm
12:31 -8.9 °C -11.4 °C 34361.1 hPa NNE 3.1 km/h   74 % 0 mm
12:36 -8.7 °C -11.4 °C 34361.1 hPa NNE 10.3 km/h 10.3 km/h 73 % 0 mm
12:41 -8.7 °C -11.4 °C 34361.1 hPa NNE 9 km/h 9 km/h 73 % 0 mm
12:46 -8.4 °C -11.2 °C 34361.1 hPa WSW 6 km/h 6.8 km/h 73 % 0 mm
12:51 -8.4 °C -11.6 °C 34327.3 hPa West 11.9 km/h 11.9 km/h 69 % 0 mm
12:56 -8.3 °C -11.8 °C 34327.3 hPa WSW 17.9 km/h 17.9 km/h 67 % 0 mm
13:01 -8.2 °C -11.7 °C 34327.3 hPa SW 11.9 km/h 11.9 km/h 66 % 0 mm
13:06 -7.9 °C -11.3 °C 34327.3 hPa WSW 16.1 km/h 16.1 km/h 67 % 0 mm
13:11 -8 °C -12 °C 34327.3 hPa WSW 11.9 km/h 11.9 km/h 63 % 0 mm
13:16 -7.8 °C -11.6 °C 34327.3 hPa West 9 km/h 9 km/h 64 % 0 mm
13:21 -7.7 °C -11.8 °C 34327.3 hPa WSW 16.1 km/h 16.1 km/h 62 % 0 mm
13:26 -7.8 °C -12 °C 34327.3 hPa South 14 km/h 14 km/h 61 % 0 mm
13:31 -7.7 °C -11.9 °C 34327.3 hPa WSW 17.9 km/h 17.9 km/h 61 % 0 mm
13:36 -7.7 °C -11.9 °C 34327.3 hPa SW 10.3 km/h 10.3 km/h 61 % 0 mm
13:41 -7.4 °C -11.8 °C 34327.3 hPa WSW 15.6 km/h 15.6 km/h 60 % 0 mm
13:46 -7.4 °C -11.8 °C 34327.3 hPa West 11.9 km/h 11.9 km/h 60 % 0 mm
13:51 -7.4 °C -11.8 °C 34327.3 hPa WSW 17.9 km/h 17.9 km/h 60 % 0 mm
13:56 -7.4 °C -11.8 °C 34327.3 hPa West 16.6 km/h 16.6 km/h 60 % 0 mm
14:01 -7.4 °C -11.8 °C 34327.3 hPa WSW 20.3 km/h 20.3 km/h 60 % 0 mm
14:06 -7.4 °C -11.8 °C 34327.3 hPa SW 11.9 km/h 11.9 km/h 60 % 0 mm
14:11 -7.4 °C -11.8 °C 34327.3 hPa WSW 15 km/h 15 km/h 60 % 0 mm
14:16 -7.4 °C -11.8 °C 34327.3 hPa WSW 14 km/h 14 km/h 60 % 0 mm
14:26 -7.4 °C -12.4 °C 34327.3 hPa West 16.1 km/h 16.1 km/h 56 % 0 mm
14:31 -7.3 °C -12.3 °C 34327.3 hPa NW 15.3 km/h 15.3 km/h 56 % 0 mm
14:36 -7.3 °C -12.4 °C 34327.3 hPa WNW 17.9 km/h 17.9 km/h 55 % 0 mm
14:41 -7.2 °C -12.3 °C 34327.3 hPa SSW 8.5 km/h 8.5 km/h 55 % 0 mm
14:46 -7.2 °C -12.3 °C 34327.3 hPa West 15 km/h 15 km/h 55 % 0 mm
14:51 -7.2 °C -12.3 °C 34327.3 hPa WSW 17.9 km/h 17.9 km/h 55 % 0 mm
14:56 -7.4 °C -12.7 °C 34327.3 hPa SW 11.9 km/h 12.2 km/h 54 % 0 mm
15:01 -7 °C -12.3 °C 34327.3 hPa WSW 19.6 km/h 19.6 km/h 54 % 0 mm
15:06 -7 °C -12.4 °C 34293.4 hPa WSW 20.9 km/h 20.9 km/h 53 % 0 mm
15:11 -6.9 °C -12.6 °C 34293.4 hPa NNW 23.8 km/h 23.8 km/h 52 % 0 mm
15:16 -6.9 °C -12.6 °C 34293.4 hPa WSW 12.7 km/h 12.7 km/h 52 % 0 mm
15:21 -6.9 °C -12.7 °C 34327.3 hPa WSW 17.9 km/h 17.9 km/h 51 % 0 mm
15:26 -6.9 °C -12.7 °C 34327.3 hPa West 15 km/h 15 km/h 51 % 0 mm
15:31 -6.8 °C -12.6 °C 34327.3 hPa West 26.9 km/h 26.9 km/h 51 % 0 mm
15:36 -6.9 °C -12.9 °C 34293.4 hPa NNW 29.8 km/h 29.8 km/h 50 % 0 mm
15:41 -6.9 °C -12.9 °C 34293.4 hPa WSW 26.9 km/h 26.9 km/h 50 % 0 mm
15:46 -6.8 °C -12.6 °C 34293.4 hPa SSW 23.8 km/h 23.8 km/h 51 % 0 mm
15:51 -6.7 °C -12.6 °C 34327.3 hPa WSW 11.9 km/h 11.9 km/h 51 % 0 mm
15:56 -6.7 °C -12.4 °C 34327.3 hPa WSW 20.9 km/h 20.9 km/h 51 % 0 mm
16:01 -6.6 °C -12.4 °C 34327.3 hPa South 12.2 km/h 12.2 km/h 51 % 0 mm
16:06 -6.5 °C -12.3 °C 34327.3 hPa SW 9 km/h 9 km/h 51 % 0 mm
16:11 -6.6 °C -12.6 °C 34327.3 hPa West 17.4 km/h 17.4 km/h 50 % 0 mm
16:16 -6.5 °C -12.4 °C 34327.3 hPa NW 9 km/h 9 km/h 50 % 0 mm
16:21 -6.4 °C -12.4 °C 34327.3 hPa North 7.6 km/h 7.6 km/h 50 % 0 mm
16:26 -6.3 °C -12.2 °C 34327.3 hPa West 12.7 km/h 12.7 km/h 51 % 0 mm
16:31 -6.3 °C -12.1 °C 34327.3 hPa SW 11.1 km/h 11.1 km/h 51 % 0 mm
16:36 -6.3 °C -12.3 °C 34327.3 hPa SW 15 km/h 15 km/h 50 % 0 mm
16:41 -6.4 °C -12.6 °C 34327.3 hPa NW 20.9 km/h 20.9 km/h 49 % 0 mm
16:46 -6.2 °C -12.2 °C 34327.3 hPa West 11.9 km/h 11.9 km/h 50 % 0 mm
16:51 -6.2 °C -12.2 °C 34327.3 hPa SW 17.9 km/h 17.9 km/h 50 % 0 mm
16:56 -6.2 °C -12.2 °C 34327.3 hPa WNW 11.9 km/h 11.9 km/h 50 % 0 mm
17:01 -6.3 °C -12.3 °C 34327.3 hPa West 11.9 km/h 11.9 km/h 50 % 0 mm
17:06 -6.4 °C -12.6 °C 34293.4 hPa WNW 15 km/h 15 km/h 49 % 0 mm
17:11 -6.3 °C -12.5 °C 34293.4 hPa West 15 km/h 15 km/h 49 % 0 mm
17:16 -6.3 °C -12.3 °C 34293.4 hPa SSW 9.8 km/h 9.8 km/h 50 % 0 mm
17:21 -6.3 °C -12.5 °C 34293.4 hPa WSW 15.3 km/h 15.3 km/h 49 % 0 mm
17:26 -6.4 °C -12.4 °C 34293.4 hPa West 11.9 km/h 11.9 km/h 50 % 0 mm
17:31 -6.4 °C -12.4 °C 34293.4 hPa WNW 15 km/h 15 km/h 50 % 0 mm
17:36 -6.3 °C -12.3 °C 34293.4 hPa WSW 11.9 km/h 11.9 km/h 50 % 0 mm
17:41 -6.4 °C -12.4 °C 34293.4 hPa WSW 15 km/h 15 km/h 50 % 0 mm
17:46 -6.4 °C -12.4 °C 34293.4 hPa WNW 15 km/h 15 km/h 50 % 0 mm
17:51 -6.5 °C -12.4 °C 34293.4 hPa WSW 11.9 km/h 11.9 km/h 50 % 0 mm
17:56 -6.4 °C -12.4 °C 34293.4 hPa West 9 km/h 9 km/h 50 % 0 mm
18:01 -6.4 °C -12.4 °C 34293.4 hPa West 7.6 km/h 7.6 km/h 50 % 0 mm
18:06 -6.4 °C -12.4 °C 34293.4 hPa South 15 km/h 15 km/h 50 % 0 mm
18:11 -6.6 °C -12.6 °C 34293.4 hPa West 17.9 km/h 17.9 km/h 50 % 0 mm
18:16 -6.6 °C -12.6 °C 34293.4 hPa West 12.7 km/h 12.7 km/h 50 % 0 mm
18:21 -6.7 °C -12.6 °C 34293.4 hPa WSW 15 km/h 15 km/h 50 % 0 mm
18:26 -6.7 °C -12.7 °C 34293.4 hPa WSW 15.6 km/h 15.6 km/h 50 % 0 mm
18:31 -6.8 °C -12.7 °C 34293.4 hPa WSW 15 km/h 15 km/h 50 % 0 mm
18:36 -6.7 °C -12.6 °C 34293.4 hPa SW 9 km/h 9 km/h 50 % 0 mm
18:42 -6.7 °C -12.6 °C 34293.4 hPa WSW 14 km/h 14 km/h 51 % 0 mm
18:47 -6.9 °C -12.8 °C 34293.4 hPa SW 9.8 km/h 14 km/h 50 % 0 mm
18:52 -6.9 °C -12.7 °C 34293.4 hPa SW 9 km/h 9 km/h 51 % 0 mm
18:57 -6.8 °C -12.6 °C 34293.4 hPa WSW 14 km/h 14 km/h 51 % 0 mm
19:02 -6.9 °C -12.7 °C 34293.4 hPa West 9 km/h 9 km/h 51 % 0 mm
19:07 -6.9 °C -12.7 °C 34327.3 hPa WSW 9 km/h 9 km/h 51 % 0 mm
19:12 -7 °C -12.6 °C 34327.3 hPa WSW 9 km/h 9 km/h 52 % 0 mm
19:15 -9.9 °C -13.7 °C 34361.1 hPa WSW 2.6 km/h 2.6 km/h 64 % 0 mm
19:17 -7.2 °C -13 °C 34327.3 hPa WSW 15 km/h 15 km/h 51 % 0 mm
19:22 -7.2 °C -13 °C 34293.4 hPa WNW 9 km/h 9 km/h 51 % 0 mm
19:25 -10 °C -13.7 °C 34361.1 hPa WSW 5.1 km/h 7.7 km/h 64 % 0 mm
19:27 -7.3 °C -12.9 °C 34293.4 hPa WSW 11.9 km/h 11.9 km/h 52 % 0 mm
19:32 -7.4 °C -12.9 °C 34293.4 hPa WSW 11.9 km/h 11.9 km/h 53 % 0 mm
19:35 -10.1 °C -13.8 °C 34361.1 hPa WSW 2.6 km/h 5.1 km/h 64 % 0 mm
19:37 -7.5 °C -12.9 °C 34327.3 hPa WSW 11.9 km/h 11.9 km/h 53 % 0 mm
19:42 -7.5 °C -12.9 °C 34327.3 hPa WSW 11.9 km/h 11.9 km/h 53 % 0 mm
19:45 -10.1 °C -13.8 °C 34327.3 hPa SW 2.6 km/h 5.1 km/h 64 % 0 mm
19:47 -7.7 °C -13.1 °C 34327.3 hPa SSE 6.3 km/h 6.3 km/h 53 % 0 mm
19:52 -7.7 °C -12.9 °C 34293.4 hPa WSW 7.6 km/h 7.6 km/h 54 % 0 mm
19:55 -10.3 °C -13.8 °C 34361.1 hPa SW 2.6 km/h 5.1 km/h 65 % 0 mm
19:57 -7.8 °C -13 °C 34293.4 hPa NW 7.6 km/h 8 km/h 54 % 0 mm
20:02 -7.8 °C -13.1 °C 34293.4 hPa NW 7.6 km/h 8 km/h 54 % 0 mm
20:05 -10.4 °C -14 °C 34361.1 hPa WSW 5.1 km/h 7.7 km/h 65 % 0 mm
20:07 -7.9 °C -13.1 °C 34293.4 hPa NW 7.6 km/h 8 km/h 54 % 0 mm
20:12 -7.9 °C -13 °C 34293.4 hPa NW 7.6 km/h 8 km/h 55 % 0 mm
20:15 -10.4 °C -13.9 °C 34327.3 hPa Calm   5.1 km/h 66 % 0 mm
20:17 -8 °C -13.1 °C 34293.4 hPa West 4.2 km/h 5.6 km/h 55 % 0 mm
20:22 -8.1 °C -13.2 °C 34293.4 hPa WNW 6.8 km/h 6.8 km/h 55 % 0 mm
20:25 -10.5 °C -14.1 °C 34361.1 hPa WSW 2.6 km/h 5.1 km/h 65 % 0 mm
20:27 -8.2 °C -13.2 °C 34293.4 hPa WNW 6.8 km/h 6.8 km/h 55 % 0 mm
20:32 -8.2 °C -13.2 °C 34293.4 hPa WSW 6.8 km/h 6.8 km/h 56 % 0 mm
20:35 -10.6 °C -14.1 °C 34361.1 hPa WSW 2.6 km/h 5.1 km/h 65 % 0 mm
20:37 -8.3 °C -13.2 °C 34327.3 hPa SW 6.3 km/h 6.3 km/h 56 % 0 mm
20:42 -8.3 °C -13.2 °C 34327.3 hPa WNW 3.1 km/h 3.7 km/h 56 % 0 mm
20:47 -8.3 °C -13.1 °C 34327.3 hPa NW 6 km/h 6.8 km/h 57 % 0 mm
20:52 -8.4 °C -13 °C 34293.4 hPa SE 6 km/h 6 km/h 58 % 0 mm
20:55 -10.7 °C -14.1 °C 34361.1 hPa WSW 2.6 km/h 5.1 km/h 66 % 0 mm
20:57 -8.4 °C -12.9 °C 34293.4 hPa NE 3.1 km/h   59 % 0 mm
21:02 -8.4 °C -12.9 °C 34293.4 hPa ENE 6 km/h 6 km/h 59 % 0 mm
21:05 -10.7 °C -14.2 °C 34361.1 hPa WSW 2.6 km/h 2.6 km/h 65 % 0 mm
21:07 -8.7 °C -13.3 °C 34327.3 hPa NNE 6.8 km/h 6.8 km/h 58 % 0 mm
21:12 -8.9 °C -13.5 °C 34327.3 hPa ENE 6.3 km/h 6.3 km/h 58 % 0 mm
21:15 -10.7 °C -14.3 °C 34361.1 hPa Calm   5.1 km/h 65 % 0 mm
21:17 -8.9 °C -13.5 °C 34327.3 hPa NNE 6.3 km/h 6.3 km/h 58 % 0 mm
21:22 -8.9 °C -13.5 °C 34327.3 hPa NE 6 km/h 6 km/h 58 % 0 mm
21:25 -10.7 °C -14.3 °C 34361.1 hPa Calm   2.6 km/h 65 % 0 mm
21:27 -8.9 °C -13.5 °C 34327.3 hPa NNE 9.8 km/h 9.8 km/h 58 % 0 mm
21:32 -9.2 °C -13.7 °C 34327.3 hPa ENE 9 km/h 9 km/h 59 % 0 mm
21:35 -10.7 °C -14.4 °C 34361.1 hPa WNW 5.1 km/h 5.1 km/h 64 % 0 mm
21:37 -9.3 °C -13.6 °C 34327.3 hPa ENE 6 km/h 6 km/h 60 % 0 mm
21:42 -9.4 °C -13.7 °C 34327.3 hPa ENE 6 km/h 6 km/h 60 % 0 mm
21:45 -10.9 °C -14.4 °C 34327.3 hPa WSW 2.6 km/h 5.1 km/h 65 % 0 mm
21:47 -9.4 °C -13.7 °C 34327.3 hPa ENE 6 km/h 6 km/h 60 % 0 mm
21:52 -9.5 °C -13.8 °C 34327.3 hPa ENE 6 km/h 6 km/h 60 % 0 mm
21:55 -10.9 °C -14.4 °C 34361.1 hPa WSW 2.6 km/h 5.1 km/h 65 % 0 mm
21:57 -9.6 °C -13.7 °C 34327.3 hPa ENE 6 km/h 6 km/h 61 % 0 mm
22:02 -9.6 °C -13.7 °C 34327.3 hPa ENE 6 km/h 6 km/h 61 % 0 mm
22:05 -11 °C -14.7 °C 34361.1 hPa WSW 5.1 km/h 5.1 km/h 64 % 0 mm
22:07 -9.7 °C -13.7 °C 34327.3 hPa Calm     62 % 0 mm
22:12 -9.7 °C -13.7 °C 34327.3 hPa South 6 km/h   62 % 0 mm
22:15 -11.1 °C -14.8 °C 34327.3 hPa WSW 7.7 km/h 10.3 km/h 64 % 0 mm
22:17 -9.8 °C -13.7 °C 34327.3 hPa Calm     63 % 0 mm
22:22 -9.8 °C -13.7 °C 34327.3 hPa ENE 6 km/h 6 km/h 63 % 0 mm
22:25 -11.2 °C -14.8 °C 34361.1 hPa WSW 2.6 km/h 7.7 km/h 64 % 0 mm
22:27 -9.8 °C -13.7 °C 34327.3 hPa WSW 3.7 km/h   63 % 0 mm
22:32 -9.9 °C -13.7 °C 34327.3 hPa Calm     64 % 0 mm
22:35 -11.3 °C -14.9 °C 34361.1 hPa WSW 5.1 km/h 7.7 km/h 64 % 0 mm
22:37 -9.9 °C -13.7 °C 34327.3 hPa Calm     64 % 0 mm
22:42 -10 °C -13.7 °C 34327.3 hPa Calm     64 % 0 mm
22:45 -11.3 °C -15 °C 34327.3 hPa WSW 2.6 km/h 7.7 km/h 64 % 0 mm
22:47 -10.1 °C -13.8 °C 34327.3 hPa Calm     64 % 0 mm
22:52 -10.1 °C -13.8 °C 34327.3 hPa Calm     64 % 0 mm
22:55 -11.4 °C -15.1 °C 34327.3 hPa WSW 2.6 km/h 10.3 km/h 64 % 0 mm
22:57 -10.1 °C -13.8 °C 34327.3 hPa WSW 4.2 km/h 4.2 km/h 64 % 0 mm
23:02 -10.1 °C -13.8 °C 34327.3 hPa WSW 6.3 km/h 6.3 km/h 64 % 0 mm
23:05 -11.4 °C -15.1 °C 34327.3 hPa WSW 5.1 km/h 12.9 km/h 64 % 0 mm
23:07 -10.1 °C -13.8 °C 34327.3 hPa WSW 3.1 km/h 3.7 km/h 64 % 0 mm
23:12 -10.1 °C -13.7 °C 34327.3 hPa WNW 6 km/h 6 km/h 65 % 0 mm
23:15 -11.4 °C -15.2 °C 34327.3 hPa WSW 5.1 km/h 10.3 km/h 63 % 0 mm
23:17 -10 °C -13.7 °C 34327.3 hPa NW 3.1 km/h 3.1 km/h 64 % 0 mm
23:22 -9.8 °C -13.6 °C 34361.1 hPa West 6 km/h 6 km/h 64 % 0 mm
23:25 -11.5 °C -15.3 °C 34327.3 hPa WSW 5.1 km/h 10.3 km/h 63 % 0 mm
23:27 -9.8 °C -13.5 °C 34361.1 hPa WNW 3.1 km/h   64 % 0 mm
23:32 -9.8 °C -13.6 °C 34361.1 hPa SW 6 km/h 6 km/h 64 % 0 mm
23:35 -11.7 °C -15.3 °C 34327.3 hPa WSW 2.6 km/h 10.3 km/h 64 % 0 mm
23:37 -10 °C -13.7 °C 34327.3 hPa SW 3.1 km/h 3.1 km/h 64 % 0 mm
23:42 -10.1 °C -13.8 °C 34327.3 hPa SW 6 km/h 6 km/h 64 % 0 mm
23:45 -11.7 °C -15.4 °C 34361.1 hPa WSW 7.7 km/h 7.7 km/h 64 % 0 mm
23:47 -10.1 °C -13.7 °C 34327.3 hPa SW 6 km/h 6 km/h 65 % 0 mm
23:52 -10.1 °C -13.7 °C 34361.1 hPa Calm     65 % 0 mm
23:55 -11.9 °C -15.5 °C 34327.3 hPa WSW 2.6 km/h 7.7 km/h 64 % 0 mm
23:57 -10.1 °C -13.7 °C 34361.1 hPa Calm     65 % 0 mm
Meteo Sesrovires
Elogis d' Weather Underground - 3.75 mb

Guio original per  Jim McMurry - jmcmurry@mwt.net Adaptat per a la plantilla per  Wim van der Kuil - Leuven-Template.eu

Trobareu la nostra informacio del temps tambe a:

Weather Underground

AWEKAS